Time;durP1;ratioP1;P1;durP2;ratioP2;P2;SDS_P1;SDS_P2;PMS_P1;PMS_P2;Temp;Humidity;BMP_temperature;BMP_pressure;BME280_temperature;BME280_humidity;BME280_pressure;Samples;Min_cycle;Max_cycle;Signal;HPM_P1;HPM_P2
2023/06/17 00:01:54;;;;;;;8.13;7.20;;;;;;;15.54;100.00;100837.88;4973679;28;20406;-67
2023/06/17 00:04:24;;;;;;;8.13;7.33;;;;;;;15.71;100.00;100829.81;4973626;28;20479;-67
2023/06/17 00:06:54;;;;;;;7.83;7.00;;;;;;;16.21;99.71;100830.13;4973697;28;20960;-68
2023/06/17 00:09:23;;;;;;;9.03;7.03;;;;;;;15.42;100.00;100826.91;4973496;28;20437;-70
2023/06/17 00:11:52;;;;;;;10.33;8.23;;;;;;;14.90;100.00;100819.59;4971492;28;20903;-69
2023/06/17 00:14:22;;;;;;;11.63;9.47;;;;;;;14.96;100.00;100822.19;4973019;28;20439;-70
2023/06/17 00:16:51;;;;;;;11.13;9.50;;;;;;;15.05;100.00;100823.53;4973675;28;20476;-68
2023/06/17 00:19:22;;;;;;;9.40;8.50;;;;;;;15.25;100.00;100825.94;4972362;28;20777;-67
2023/06/17 00:22:24;;;;;;;7.00;6.40;;;;;;;15.33;100.00;100817.44;4973788;28;20420;-67
2023/06/17 00:24:54;;;;;;;9.03;7.57;;;;;;;15.07;100.00;100813.22;4969893;28;20462;-68
2023/06/17 00:27:23;;;;;;;7.40;6.77;;;;;;;15.98;100.00;100815.41;4973432;28;20462;-67
2023/06/17 00:29:52;;;;;;;11.23;7.47;;;;;;;16.52;95.92;100816.00;4973799;28;20435;-69
2023/06/17 00:32:21;;;;;;;8.97;8.17;;;;;;;16.46;95.69;100814.22;4972081;28;20419;-67
2023/06/17 00:34:51;;;;;;;8.27;7.53;;;;;;;16.17;96.11;100812.56;4972563;28;20486;-66
2023/06/17 00:37:20;;;;;;;10.40;8.33;;;;;;;16.43;94.98;100817.47;4972653;28;20441;-69
2023/06/17 00:39:50;;;;;;;7.90;7.17;;;;;;;16.40;94.97;100816.06;4972348;28;20405;-68
2023/06/17 00:42:20;;;;;;;8.57;7.77;;;;;;;16.17;95.88;100818.03;4972421;28;20789;-67
2023/06/17 00:44:49;;;;;;;8.67;7.87;;;;;;;15.66;96.86;100811.44;4974556;28;20433;-66
2023/06/17 00:47:18;;;;;;;8.87;8.07;;;;;;;15.59;99.14;100811.53;4973295;28;20491;-69
2023/06/17 00:49:49;;;;;;;8.67;7.10;;;;;;;15.70;100.00;100800.84;4971924;28;20527;-68
2023/06/17 00:52:19;;;;;;;8.67;7.87;;;;;;;15.70;98.35;100803.59;4971952;28;20443;-67
2023/06/17 00:55:11;;;;;;;8.47;7.67;;;;;;;15.73;100.00;100801.22;4970840;28;20778;-68
2023/06/17 00:57:40;;;;;;;8.63;7.87;;;;;;;16.14;98.24;100799.38;4975862;28;20454;-67
2023/06/17 01:00:11;;;;;;;8.33;7.50;;;;;;;16.34;96.17;100800.63;4965300;28;20441;-67
2023/06/17 01:02:44;;;;;;;9.67;8.77;;;;;;;16.00;95.22;100794.19;4975106;28;20831;-68
2023/06/17 01:05:18;;;;;;;9.07;8.27;;;;;;;16.20;96.53;100795.69;4973641;28;21074;-69
2023/06/17 01:08:02;;;;;;;10.63;7.93;;;;;;;16.37;96.81;100796.56;4975864;28;20470;-69
2023/06/17 01:10:40;;;;;;;7.67;6.97;;;;;;;16.68;94.10;100798.03;4977510;28;20401;-65
2023/06/17 01:13:10;;;;;;;9.77;8.83;;;;;;;16.51;93.36;100800.69;4973763;28;20431;-67
2023/06/17 01:15:40;;;;;;;9.30;8.33;;;;;;;16.29;95.91;100795.06;4976726;28;20436;-68
2023/06/17 01:18:11;;;;;;;8.57;7.50;;;;;;;16.39;96.20;100805.38;4976163;28;20414;-65
2023/06/17 01:20:42;;;;;;;9.73;8.40;;;;;;;16.44;94.35;100806.31;4970381;28;20518;-69
2023/06/17 01:23:14;;;;;;;9.73;8.60;;;;;;;16.03;96.10;100807.34;4976852;28;20435;-68
2023/06/17 01:25:49;;;;;;;10.43;8.97;;;;;;;16.25;97.77;100801.25;4973492;28;20477;-69
2023/06/17 01:28:19;;;;;;;7.30;6.60;;;;;;;16.58;95.31;100812.34;4974659;28;20537;-68
2023/06/17 01:30:55;;;;;;;9.80;8.90;;;;;;;16.45;94.64;100810.69;4976953;28;20429;-68
2023/06/17 01:33:25;;;;;;;8.60;7.80;;;;;;;16.59;93.68;100811.28;4976634;28;20397;-68
2023/06/17 01:36:00;;;;;;;8.50;7.70;;;;;;;16.75;92.77;100807.75;4977321;28;20520;-68
2023/06/17 01:38:35;;;;;;;8.60;7.70;;;;;;;17.07;91.69;100813.53;4973207;28;20465;-69
2023/06/17 01:41:16;;;;;;;9.60;8.27;;;;;;;17.45;88.10;100804.59;4975216;28;20497;-66
2023/06/17 01:43:46;;;;;;;10.90;6.77;;;;;;;17.57;86.95;100802.56;4977086;28;20450;-68
2023/06/17 01:46:16;;;;;;;9.27;8.30;;;;;;;17.63;87.08;100804.34;4977318;28;20467;-67
2023/06/17 01:48:46;;;;;;;10.90;9.80;;;;;;;17.24;89.07;100797.13;4974257;28;20434;-67
2023/06/17 01:51:15;;;;;;;7.93;7.13;;;;;;;16.92;90.96;100799.59;4976392;28;20430;-66
2023/06/17 01:53:44;;;;;;;16.40;9.13;;;;;;;17.10;90.75;100801.25;4975695;28;20461;-67
2023/06/17 01:56:15;;;;;;;13.77;8.03;;;;;;;17.01;90.40;100800.00;4977416;28;20967;-67
2023/06/17 01:58:45;;;;;;;8.93;8.07;;;;;;;17.06;90.69;100806.41;4977740;28;20414;-67
2023/06/17 02:01:14;;;;;;;10.30;9.30;;;;;;;16.78;91.46;100798.22;4976349;28;20427;-69
2023/06/17 02:03:44;;;;;;;11.43;8.93;;;;;;;16.80;92.11;100794.16;4976334;28;20409;-68
2023/06/17 02:06:13;;;;;;;8.60;7.70;;;;;;;16.61;92.20;100803.66;4975039;28;20564;-66
2023/06/17 02:08:43;;;;;;;10.20;7.67;;;;;;;16.60;93.36;100796.53;4975862;28;20398;-68
2023/06/17 02:11:14;;;;;;;8.57;7.67;;;;;;;16.76;92.62;100793.00;4974612;28;20417;-68
2023/06/17 02:13:44;;;;;;;9.23;8.30;;;;;;;16.36;93.98;100792.22;4972860;28;20476;-69
2023/06/17 02:16:13;;;;;;;8.10;7.17;;;;;;;16.79;92.88;100794.44;4975728;28;20500;-68
2023/06/17 02:18:43;;;;;;;10.40;8.70;;;;;;;16.89;90.71;100797.34;4971913;28;20815;-69
2023/06/17 02:21:13;;;;;;;9.40;8.50;;;;;;;16.45;93.11;100797.03;4976062;28;20429;-68
2023/06/17 02:23:48;;;;;;;10.47;9.30;;;;;;;16.33;93.29;100800.88;4975369;28;20435;-68
2023/06/17 02:26:19;;;;;;;11.33;10.13;;;;;;;15.94;95.41;100797.88;4965837;28;20460;-68
2023/06/17 02:28:50;;;;;;;10.10;9.07;;;;;;;15.70;97.35;100792.69;4968733;28;20502;-69
2023/06/17 02:31:19;;;;;;;9.47;8.53;;;;;;;15.89;98.15;100797.75;4975452;28;20449;-67
2023/06/17 02:33:48;;;;;;;9.97;8.97;;;;;;;15.34;99.81;100791.81;4975849;28;20435;-68
2023/06/17 02:36:19;;;;;;;9.73;8.80;;;;;;;15.57;100.00;100791.88;4975569;28;20435;-68
2023/06/17 02:38:50;;;;;;;9.40;8.60;;;;;;;16.02;99.21;100783.84;4974860;28;20450;-68
2023/06/17 02:41:20;;;;;;;10.80;9.70;;;;;;;16.04;96.28;100780.88;4975285;28;20773;-69
2023/06/17 02:43:50;;;;;;;10.30;9.23;;;;;;;15.71;97.83;100776.06;4975355;28;20811;-68
2023/06/17 02:46:19;;;;;;;10.40;9.30;;;;;;;15.39;100.00;100778.31;4975264;28;20451;-67
2023/06/17 02:48:48;;;;;;;10.20;9.30;;;;;;;15.48;100.00;100786.97;4975159;28;20413;-68
2023/06/17 02:51:17;;;;;;;9.40;8.47;;;;;;;15.52;100.00;100782.72;4975647;28;20431;-67
2023/06/17 02:53:47;;;;;;;9.03;8.13;;;;;;;15.22;100.00;100783.63;4974430;28;20457;-68
2023/06/17 02:56:21;;;;;;;12.00;10.43;;;;;;;15.54;100.00;100780.59;4971798;28;20475;-68
2023/06/17 02:58:50;;;;;;;10.00;9.00;;;;;;;15.14;100.00;100781.25;4974333;28;20490;-67
2023/06/17 03:01:21;;;;;;;10.30;9.30;;;;;;;15.90;100.00;100776.75;4980998;28;20453;-66
2023/06/17 03:03:54;;;;;;;11.93;9.60;;;;;;;15.58;99.91;100779.88;4975518;28;20433;-68
2023/06/17 03:06:24;;;;;;;11.97;10.70;;;;;;;15.56;100.00;100789.38;4973958;28;20909;-68
2023/06/17 03:08:54;;;;;;;12.10;10.87;;;;;;;15.53;100.00;100789.84;4973796;28;20421;-67
2023/06/17 03:11:25;;;;;;;11.33;10.13;;;;;;;15.53;100.00;100787.13;4974029;28;20443;-67
2023/06/17 03:13:55;;;;;;;11.63;10.67;;;;;;;16.07;97.83;100789.41;4973916;28;20465;-68
2023/06/17 03:16:33;;;;;;;10.77;9.60;;;;;;;16.29;97.46;100786.03;4973719;28;20525;-67
2023/06/17 03:19:04;;;;;;;10.47;9.40;;;;;;;16.62;93.25;100778.00;4975000;28;20397;-66
2023/06/17 03:21:40;;;;;;;11.60;9.03;;;;;;;16.56;93.95;100784.38;4957838;28;20469;-67
2023/06/17 03:24:10;;;;;;;15.63;11.33;;;;;;;16.79;92.60;100778.03;4973763;28;20885;-67
2023/06/17 03:26:41;;;;;;;11.47;10.43;;;;;;;16.39;93.18;100783.53;4973319;28;20893;-68
2023/06/17 03:29:10;;;;;;;11.73;10.63;;;;;;;16.88;92.18;100774.66;4973244;28;20460;-66
2023/06/17 03:31:40;;;;;;;11.20;9.93;;;;;;;16.56;92.86;100778.94;4973065;28;20472;-69
2023/06/17 03:34:10;;;;;;;8.23;7.27;;;;;;;16.80;93.47;100779.66;4973497;28;20442;-66
2023/06/17 03:36:39;;;;;;;11.60;10.50;;;;;;;16.68;93.56;100787.94;4973333;28;20445;-67
2023/06/17 03:39:09;;;;;;;10.73;9.73;;;;;;;16.66;93.40;100784.63;4973190;28;20513;-66
2023/06/17 03:41:40;;;;;;;11.83;10.60;;;;;;;16.84;92.31;100781.69;4972938;28;20422;-69
2023/06/17 03:44:09;;;;;;;11.53;10.33;;;;;;;16.78;92.41;100781.84;4973162;28;20453;-67
2023/06/17 03:46:39;;;;;;;10.20;8.50;;;;;;;16.52;94.04;100791.41;4971565;28;20460;-67
2023/06/17 03:49:08;;;;;;;11.70;10.70;;;;;;;16.79;93.50;100786.25;4972730;28;20417;-67
2023/06/17 03:51:38;;;;;;;13.03;11.97;;;;;;;16.68;92.00;100798.88;4972624;28;20479;-66
2023/06/17 03:54:07;;;;;;;13.37;12.17;;;;;;;16.67;92.28;100791.75;4974299;28;20413;-67
2023/06/17 03:56:37;;;;;;;11.90;10.80;;;;;;;16.16;93.90;100799.97;4965407;28;20458;-67
2023/06/17 03:59:08;;;;;;;13.00;11.60;;;;;;;15.50;98.89;100795.72;4972904;28;20433;-68
2023/06/17 04:01:38;;;;;;;13.60;12.30;;;;;;;15.81;99.64;100798.13;4973035;28;20497;-69
2023/06/17 04:04:07;;;;;;;13.03;11.80;;;;;;;16.06;96.60;100795.97;4974004;28;20401;-67
2023/06/17 04:06:36;;;;;;;11.10;10.07;;;;;;;16.34;97.23;100800.63;4972620;28;20525;-67
2023/06/17 04:09:06;;;;;;;15.27;12.20;;;;;;;16.40;95.49;100801.56;4973690;28;20402;-66
2023/06/17 04:11:35;;;;;;;12.17;10.23;;;;;;;16.64;94.36;100803.16;4972520;28;21060;-68
2023/06/17 04:14:05;;;;;;;14.17;12.67;;;;;;;16.84;92.42;100800.81;4972430;28;20424;-67
2023/06/17 04:16:36;;;;;;;13.27;11.97;;;;;;;16.39;94.25;100802.63;4973180;28;20962;-68
2023/06/17 04:19:05;;;;;;;13.70;12.30;;;;;;;15.95;97.73;100799.53;4973297;28;20942;-65
2023/06/17 04:21:38;;;;;;;16.07;14.47;;;;;;;15.61;100.00;100800.41;4974605;28;20409;-66
2023/06/17 04:24:07;;;;;;;15.93;14.53;;;;;;;15.65;100.00;100798.84;4973815;28;20402;-67
2023/06/17 04:26:38;;;;;;;17.93;14.77;;;;;;;15.59;100.00;100799.78;4965057;28;20540;-66
2023/06/17 04:29:08;;;;;;;16.13;14.50;;;;;;;15.64;100.00;100799.91;4966801;28;20453;-67
2023/06/17 04:31:40;;;;;;;18.17;15.90;;;;;;;15.45;100.00;100798.34;4972725;28;20480;-69
2023/06/17 04:34:12;;;;;;;19.27;17.07;;;;;;;15.36;100.00;100799.75;4972124;28;20422;-67
2023/06/17 04:36:42;;;;;;;19.73;17.63;;;;;;;16.12;99.86;100799.59;4972117;28;20477;-66
2023/06/17 04:39:11;;;;;;;17.57;15.97;;;;;;;16.07;98.26;100805.78;4972136;28;20497;-68
2023/06/17 04:41:46;;;;;;;18.00;16.17;;;;;;;15.86;100.00;100802.88;4974459;28;20471;-68
2023/06/17 04:44:15;;;;;;;18.77;16.87;;;;;;;15.95;99.48;100805.00;4975967;28;20443;-67
2023/06/17 04:46:48;;;;;;;17.83;15.90;;;;;;;15.92;100.00;100805.50;4975970;28;20863;-67
2023/06/17 04:49:17;;;;;;;19.53;16.20;;;;;;;15.73;100.00;100806.69;4975739;28;20524;-66
2023/06/17 04:51:48;;;;;;;19.40;16.10;;;;;;;16.00;100.00;100807.84;4974445;28;20442;-68
2023/06/17 04:54:18;;;;;;;17.03;15.40;;;;;;;16.11;100.00;100803.44;4974843;28;20526;-67
2023/06/17 04:56:48;;;;;;;19.17;16.33;;;;;;;16.58;97.00;100809.59;4969546;28;20445;-68
2023/06/17 04:59:19;;;;;;;18.93;16.50;;;;;;;16.51;96.75;100815.16;4973002;28;20453;-67
2023/06/17 05:01:50;;;;;;;21.50;18.17;;;;;;;16.02;99.47;100808.41;4972790;28;20418;-68
2023/06/17 05:04:19;;;;;;;20.23;18.17;;;;;;;16.26;99.95;100813.84;4977151;28;20504;-67
2023/06/17 05:06:48;;;;;;;16.53;14.80;;;;;;;16.36;98.27;100812.13;4977196;28;20451;-65
2023/06/17 05:09:18;;;;;;;22.23;16.20;;;;;;;16.74;96.19;100811.56;4971255;28;20848;-67
2023/06/17 05:11:47;;;;;;;20.67;18.37;;;;;;;16.93;94.66;100813.00;4972300;28;20499;-67
2023/06/17 05:14:17;;;;;;;15.60;13.90;;;;;;;17.65;91.09;100810.41;4969094;28;20502;-68
2023/06/17 05:16:46;;;;;;;18.50;16.70;;;;;;;17.60;89.83;100810.31;4983234;28;20494;-68
2023/06/17 05:19:17;;;;;;;17.27;15.53;;;;;;;17.86;87.42;100810.72;4969734;28;20414;-67
2023/06/17 05:21:46;;;;;;;18.53;16.63;;;;;;;17.41;89.20;100803.44;4976039;28;20447;-65
2023/06/17 05:24:19;;;;;;;22.77;17.20;;;;;;;17.36;90.36;100811.56;4976058;28;20600;-67
2023/06/17 05:26:48;;;;;;;17.43;15.67;;;;;;;17.45;89.98;100807.31;4965815;28;20449;-65
2023/06/17 05:29:18;;;;;;;16.63;15.10;;;;;;;17.16;91.58;100805.75;4974581;28;20545;-66
2023/06/17 05:31:54;;;;;;;19.90;18.00;;;;;;;17.10;91.72;100818.50;4975863;28;20417;-67
2023/06/17 05:34:25;;;;;;;18.67;16.97;;;;;;;17.64;90.86;100814.22;4974077;28;20921;-68
2023/06/17 05:36:54;;;;;;;20.57;18.63;;;;;;;17.65;88.63;100815.88;4972183;28;20451;-67
2023/06/17 05:39:23;;;;;;;20.30;18.30;;;;;;;17.90;87.93;100812.69;4969469;28;20508;-66
2023/06/17 05:41:52;;;;;;;21.10;17.37;;;;;;;17.84;88.61;100813.69;4956202;29;20582;-68
2023/06/17 05:44:22;;;;;;;19.47;17.40;;;;;;;17.60;88.71;100812.22;4973542;28;20413;-66
2023/06/17 05:46:52;;;;;;;18.13;16.23;;;;;;;17.68;87.98;100809.91;4983462;28;20489;-70
2023/06/17 05:49:23;;;;;;;17.20;15.50;;;;;;;17.05;90.19;100814.84;4975099;28;20504;-67
2023/06/17 05:51:52;;;;;;;20.73;18.47;;;;;;;17.04;91.98;100814.00;4969991;28;20413;-66
2023/06/17 05:54:22;;;;;;;19.17;17.17;;;;;;;17.28;91.73;100814.72;4974862;28;20410;-67
2023/06/17 05:56:51;;;;;;;17.80;16.07;;;;;;;17.11;90.73;100819.31;4975017;28;20473;-65
2023/06/17 05:59:21;;;;;;;20.17;18.17;;;;;;;17.10;90.42;100826.69;4974684;28;20413;-66
2023/06/17 06:01:51;;;;;;;17.10;15.30;;;;;;;17.09;90.92;100827.75;4974893;28;21004;-67
2023/06/17 06:04:20;;;;;;;18.27;16.40;;;;;;;16.90;91.40;100829.88;4966425;28;20410;-67
2023/06/17 06:06:51;;;;;;;18.90;17.10;;;;;;;16.85;92.04;100832.53;4974624;28;20450;-67
2023/06/17 06:09:20;;;;;;;18.30;16.70;;;;;;;16.88;92.98;100832.06;4975744;28;20463;-65
2023/06/17 06:11:50;;;;;;;19.00;17.20;;;;;;;16.97;93.50;100831.66;4974531;28;20500;-67
2023/06/17 06:14:19;;;;;;;18.73;16.83;;;;;;;16.91;93.56;100828.81;4975831;28;21009;-69
2023/06/17 06:16:50;;;;;;;19.33;17.53;;;;;;;16.90;92.90;100829.88;4974625;28;20484;-66
2023/06/17 06:19:19;;;;;;;18.43;16.20;;;;;;;16.69;93.44;100841.53;4972512;28;20458;-66
2023/06/17 06:21:49;;;;;;;17.40;15.57;;;;;;;16.97;92.73;100834.38;4970029;28;20414;-69
2023/06/17 06:24:19;;;;;;;19.30;16.50;;;;;;;17.19;90.51;100838.03;4974166;28;20808;-69
2023/06/17 06:26:48;;;;;;;17.70;16.00;;;;;;;17.45;91.33;100839.31;4973892;28;20444;-67
2023/06/17 06:29:17;;;;;;;18.57;16.77;;;;;;;17.51;89.43;100836.44;4968674;28;20470;-68
2023/06/17 06:31:47;;;;;;;17.77;15.93;;;;;;;17.84;86.33;100841.06;4969285;28;20951;-67
2023/06/17 06:34:18;;;;;;;17.57;15.77;;;;;;;17.94;85.52;100840.38;4973978;28;20410;-69
2023/06/17 06:36:47;;;;;;;18.10;16.30;;;;;;;18.38;84.78;100836.59;4970436;28;20554;-68
2023/06/17 06:39:18;;;;;;;20.17;18.17;;;;;;;18.53;83.53;100842.31;4975102;28;20436;-67
2023/06/17 06:41:48;;;;;;;18.80;16.97;;;;;;;18.37;83.69;100843.16;4970507;28;20524;-67
2023/06/17 06:44:30;;;;;;;18.40;16.50;;;;;;;18.40;84.67;100845.38;4972848;28;20549;-69
2023/06/17 06:46:59;;;;;;;18.33;16.63;;;;;;;18.08;84.90;100841.69;4971747;28;20456;-68
2023/06/17 06:49:28;;;;;;;18.57;16.23;;;;;;;18.19;84.42;100843.47;4973870;28;20470;-69
2023/06/17 06:51:57;;;;;;;18.77;17.07;;;;;;;18.06;84.97;100846.56;4975993;28;20409;-68
2023/06/17 06:54:28;;;;;;;17.40;15.63;;;;;;;18.21;85.14;100846.78;4978783;28;20876;-68
2023/06/17 06:56:57;;;;;;;18.20;16.30;;;;;;;18.24;84.37;100840.81;4974791;28;20796;-68
2023/06/17 06:59:28;;;;;;;18.73;16.80;;;;;;;18.06;84.61;100846.56;4967437;28;20949;-68
2023/06/17 07:01:57;;;;;;;19.37;17.50;;;;;;;18.26;83.86;100852.31;4974332;28;20440;-68
2023/06/17 07:04:27;;;;;;;18.60;16.60;;;;;;;18.51;82.61;100854.56;4970907;28;20430;-66
2023/06/17 07:06:59;;;;;;;19.47;17.53;;;;;;;18.73;81.54;100851.84;4973159;28;20990;-70
2023/06/17 07:09:34;;;;;;;20.67;18.77;;;;;;;18.33;83.68;100850.25;4972133;28;20521;-68
2023/06/17 07:12:04;;;;;;;20.53;18.27;;;;;;;17.61;87.51;100858.50;4976255;28;20442;-67
2023/06/17 07:14:37;;;;;;;18.60;16.60;;;;;;;17.53;89.06;100855.31;4970711;28;20435;-67
2023/06/17 07:17:07;;;;;;;20.23;18.40;;;;;;;17.60;89.19;100851.38;4973238;28;20467;-70
2023/06/17 07:19:36;;;;;;;19.20;17.07;;;;;;;17.72;89.11;100857.56;4970619;28;20470;-67
2023/06/17 07:22:09;;;;;;;20.40;18.40;;;;;;;17.81;88.11;100847.84;4971889;28;20418;-67
2023/06/17 07:24:40;;;;;;;20.67;18.80;;;;;;;17.94;86.98;100856.81;4967267;28;20504;-68
2023/06/17 07:27:10;;;;;;;19.83;17.83;;;;;;;18.13;85.45;100848.06;4971983;28;20545;-68
2023/06/17 07:29:39;;;;;;;19.90;17.90;;;;;;;18.54;84.01;100851.38;4970798;28;20445;-68
2023/06/17 07:32:09;;;;;;;20.07;17.97;;;;;;;18.43;84.36;100850.38;4972809;28;20504;-67
2023/06/17 07:34:38;;;;;;;18.70;17.00;;;;;;;18.64;83.81;100860.50;4971978;28;20482;-68
2023/06/17 07:37:07;;;;;;;21.23;19.13;;;;;;;18.57;83.26;100850.84;4971760;28;20459;-68
2023/06/17 07:39:36;;;;;;;19.83;18.10;;;;;;;18.99;81.72;100854.59;4971771;28;20417;-67
2023/06/17 07:42:07;;;;;;;21.27;17.77;;;;;;;18.91;81.85;100856.97;4973861;28;20405;-67
2023/06/17 07:45:03;;;;;;;20.23;18.37;;;;;;;18.71;83.38;100862.22;4972312;28;20555;-67
2023/06/17 07:47:32;;;;;;;22.30;20.03;;;;;;;18.48;84.64;100858.66;4970989;28;20475;-71
2023/06/17 07:50:01;;;;;;;20.40;18.30;;;;;;;18.36;86.31;100854.38;4972503;28;20433;-70
2023/06/17 07:52:34;;;;;;;19.70;17.70;;;;;;;18.10;87.38;100859.53;4972736;28;20787;-69
2023/06/17 07:55:04;;;;;;;23.60;21.40;;;;;;;18.01;87.24;100857.47;4973429;28;20431;-68
2023/06/17 07:57:37;;;;;;;21.57;19.23;;;;;;;18.27;86.42;100862.19;4972555;28;20532;-68
2023/06/17 08:00:12;;;;;;;19.10;17.20;;;;;;;18.33;85.79;100855.72;4969506;28;20507;-67
2023/06/17 08:02:44;;;;;;;18.37;16.70;;;;;;;18.58;83.89;100852.50;4972079;28;20432;-68
2023/06/17 08:05:14;;;;;;;18.60;16.80;;;;;;;19.07;81.78;100851.38;4973492;28;20772;-67
2023/06/17 08:07:43;;;;;;;20.70;18.70;;;;;;;19.50;79.25;100850.47;4972644;28;20433;-70
2023/06/17 08:10:12;;;;;;;18.10;16.17;;;;;;;19.60;77.78;100860.69;4973143;28;20477;-69
2023/06/17 08:12:44;;;;;;;17.50;15.80;;;;;;;20.13;75.38;100854.19;4971636;28;20814;-69
2023/06/17 08:15:13;;;;;;;17.23;15.50;;;;;;;20.79;72.58;100862.72;4974595;28;20426;-67
2023/06/17 08:17:42;;;;;;;18.07;16.17;;;;;;;20.82;70.24;100856.69;4970810;28;20455;-67
2023/06/17 08:20:13;;;;;;;17.77;16.17;;;;;;;20.86;71.44;100863.31;4967195;28;20841;-66
2023/06/17 08:22:43;;;;;;;18.90;17.13;;;;;;;20.60;71.50;100864.31;4970982;28;20933;-69
2023/06/17 08:25:12;;;;;;;18.20;16.50;;;;;;;19.91;75.67;100858.97;4971580;28;20462;-67
2023/06/17 08:27:47;;;;;;;19.80;17.77;;;;;;;19.79;76.43;100863.84;4969990;28;20468;-67
2023/06/17 08:30:17;;;;;;;18.40;16.00;;;;;;;20.01;75.24;100856.28;4968074;28;20544;-67
2023/06/17 08:32:47;;;;;;;18.37;16.50;;;;;;;20.08;75.41;100867.88;4974053;28;20448;-67
2023/06/17 08:35:16;;;;;;;18.03;16.43;;;;;;;20.22;74.67;100865.50;4970054;28;20437;-68
2023/06/17 08:37:45;;;;;;;19.07;17.30;;;;;;;19.92;76.08;100869.69;4971826;28;20852;-67
2023/06/17 08:40:15;;;;;;;16.70;15.00;;;;;;;19.95;76.61;100865.59;4971208;28;20405;-67
2023/06/17 08:42:48;;;;;;;17.80;16.20;;;;;;;19.72;78.09;100865.97;4972125;28;20440;-67
2023/06/17 08:45:18;;;;;;;18.50;16.73;;;;;;;20.05;76.80;100857.41;4971156;28;20442;-68
2023/06/17 08:47:47;;;;;;;19.00;16.53;;;;;;;20.41;75.07;100865.88;4974042;28;20485;-68
2023/06/17 08:50:17;;;;;;;18.80;16.90;;;;;;;20.74;73.21;100860.78;4972618;28;20521;-68
2023/06/17 08:52:48;;;;;;;18.10;16.50;;;;;;;20.73;72.14;100866.56;4971544;28;20623;-67
2023/06/17 08:55:17;;;;;;;21.63;16.60;;;;;;;20.69;73.03;100866.28;4971817;28;20431;-69
2023/06/17 08:57:50;;;;;;;16.60;15.10;;;;;;;20.65;73.21;100862.41;4967251;28;21003;-69
2023/06/17 09:00:20;;;;;;;17.63;16.03;;;;;;;20.63;73.64;100867.34;4971480;28;20427;-66
2023/06/17 09:02:51;;;;;;;18.10;16.37;;;;;;;20.74;72.74;100866.28;4971736;28;20431;-68
2023/06/17 09:05:20;;;;;;;18.83;17.13;;;;;;;20.22;74.47;100869.06;4972660;28;20918;-68
2023/06/17 09:07:50;;;;;;;18.27;16.70;;;;;;;20.56;73.29;100882.44;4966446;28;20450;-67
2023/06/17 09:10:20;;;;;;;19.33;16.80;;;;;;;20.58;73.55;100881.06;4971947;28;20462;-68
2023/06/17 09:12:52;;;;;;;21.17;16.53;;;;;;;21.16;72.08;100873.56;4974226;28;20439;-68
2023/06/17 09:15:21;;;;;;;18.33;16.63;;;;;;;21.35;70.62;100880.19;4970246;28;20430;-68
2023/06/17 09:17:52;;;;;;;18.87;16.97;;;;;;;21.40;69.20;100879.38;4966359;28;20486;-69
2023/06/17 09:20:22;;;;;;;18.17;16.43;;;;;;;21.06;70.08;100879.84;4969845;28;20404;-68
2023/06/17 09:22:51;;;;;;;17.53;15.93;;;;;;;20.11;74.37;100878.34;4969225;28;20410;-67
2023/06/17 09:25:22;;;;;;;18.17;16.47;;;;;;;20.08;74.98;100876.13;4969721;28;20471;-67
2023/06/17 09:27:54;;;;;;;16.33;14.93;;;;;;;20.15;75.37;100878.63;4974328;28;21004;-67
2023/06/17 09:30:26;;;;;;;18.17;16.47;;;;;;;19.55;76.90;100879.03;4974734;28;20480;-68
2023/06/17 09:32:55;;;;;;;19.13;16.90;;;;;;;19.86;76.86;100881.75;4973766;28;20444;-69
2023/06/17 09:35:24;;;;;;;19.53;17.23;;;;;;;20.20;76.36;100881.41;4974468;28;20409;-67
2023/06/17 09:37:55;;;;;;;17.10;15.60;;;;;;;20.16;74.76;100880.28;4969461;28;21042;-68
2023/06/17 09:40:34;;;;;;;16.13;14.63;;;;;;;20.30;74.49;100882.31;4977225;28;20404;-67
2023/06/17 09:43:05;;;;;;;17.70;16.20;;;;;;;20.78;72.44;100878.41;4973557;28;20426;-67
2023/06/17 09:46:00;;;;;;;18.33;15.00;;;;;;;21.23;69.49;100883.22;4977566;28;20442;-68
2023/06/17 09:48:33;;;;;;;18.03;16.40;;;;;;;21.45;68.49;100876.63;4977641;28;20426;-68
2023/06/17 09:51:05;;;;;;;17.40;15.80;;;;;;;21.48;68.40;100876.09;4975628;28;20509;-68
2023/06/17 09:53:35;;;;;;;16.10;14.47;;;;;;;21.73;67.78;100881.63;4974543;28;20435;-68
2023/06/17 09:56:10;;;;;;;16.67;15.03;;;;;;;21.76;67.99;100882.97;4973486;28;20444;-68
2023/06/17 09:58:43;;;;;;;17.00;15.13;;;;;;;21.94;67.12;100876.91;4971739;28;20425;-66
2023/06/17 10:01:13;;;;;;;18.70;16.90;;;;;;;21.92;67.41;100888.19;4972515;28;20422;-67
2023/06/17 10:03:43;;;;;;;16.53;15.07;;;;;;;21.83;67.62;100884.38;4971591;28;20485;-68
2023/06/17 10:06:13;;;;;;;16.67;15.17;;;;;;;21.80;67.34;100879.38;4973821;28;20482;-68
2023/06/17 10:08:44;;;;;;;16.60;14.93;;;;;;;21.92;64.04;100871.69;4971040;28;20581;-68
2023/06/17 10:11:15;;;;;;;15.77;14.20;;;;;;;21.97;65.34;100868.94;4974121;28;20840;-69
2023/06/17 10:13:54;;;;;;;14.63;13.37;;;;;;;22.17;64.37;100861.75;4973645;28;20450;-68
2023/06/17 10:16:26;;;;;;;13.30;12.20;;;;;;;22.10;63.47;100862.84;4972656;28;20498;-68
2023/06/17 10:18:58;;;;;;;13.50;12.27;;;;;;;22.25;63.72;100858.41;4974093;28;20435;-67
2023/06/17 10:21:30;;;;;;;15.20;13.93;;;;;;;21.87;64.54;100863.41;4973997;28;20465;-66
2023/06/17 10:24:01;;;;;;;13.93;12.63;;;;;;;21.74;64.65;100858.44;4973794;28;20434;-68
2023/06/17 10:26:32;;;;;;;15.30;13.90;;;;;;;21.77;63.96;100868.94;4972354;28;20455;-67
2023/06/17 10:29:06;;;;;;;13.77;12.57;;;;;;;21.76;64.71;100864.53;4974939;28;20402;-68
2023/06/17 10:31:39;;;;;;;12.83;11.43;;;;;;;22.03;64.17;100867.81;4978001;28;21021;-68
2023/06/17 10:34:14;;;;;;;13.57;12.47;;;;;;;21.97;63.74;100868.13;4973572;28;20435;-68
2023/06/17 10:36:48;;;;;;;15.53;14.03;;;;;;;22.29;63.46;100868.56;4972811;28;20468;-67
2023/06/17 10:39:17;;;;;;;12.77;11.50;;;;;;;22.46;62.76;100866.28;4974525;28;20485;-69
2023/06/17 10:41:57;;;;;;;14.93;13.53;;;;;;;22.01;63.44;100853.50;4975079;28;20489;-67
2023/06/17 10:44:40;;;;;;;14.60;13.30;;;;;;;21.83;63.55;100856.81;4968171;28;20804;-68
2023/06/17 10:47:22;;;;;;;15.00;13.70;;;;;;;22.00;63.21;100851.00;4976256;28;20421;-67
2023/06/17 10:49:55;;;;;;;13.00;11.70;;;;;;;23.02;60.60;100866.06;4970037;28;20423;-68
2023/06/17 10:52:24;;;;;;;14.87;13.27;;;;;;;23.67;57.89;100864.75;4977413;28;20427;-68
2023/06/17 10:54:55;;;;;;;12.93;11.83;;;;;;;23.98;56.34;100861.72;4972126;28;20469;-68
2023/06/17 10:57:32;;;;;;;11.83;10.83;;;;;;;24.13;56.04;100856.84;4971649;28;20458;-69
2023/06/17 11:00:10;;;;;;;13.00;11.90;;;;;;;24.07;56.45;100846.13;4970705;28;20710;-70
2023/06/17 11:02:40;;;;;;;14.37;13.17;;;;;;;24.09;56.81;100843.91;4972092;28;20529;-68
2023/06/17 11:05:10;;;;;;;16.53;14.93;;;;;;;23.79;58.05;100845.06;4974133;28;20493;-69
2023/06/17 11:07:39;;;;;;;13.73;12.30;;;;;;;23.36;57.99;100841.25;4971245;28;20482;-68
2023/06/17 11:10:09;;;;;;;14.70;13.40;;;;;;;22.19;61.82;100831.94;4972390;28;20506;-69
2023/06/17 11:12:39;;;;;;;14.63;13.40;;;;;;;21.87;62.60;100849.66;4972160;28;20442;-67
2023/06/17 11:15:10;;;;;;;14.73;13.20;;;;;;;20.87;68.40;100859.44;4975699;28;20438;-67
2023/06/17 11:17:39;;;;;;;12.57;11.50;;;;;;;20.43;72.44;100863.72;4971194;28;20509;-67
2023/06/17 11:20:11;;;;;;;12.67;11.60;;;;;;;19.88;76.20;100857.59;4974035;28;20471;-67
2023/06/17 11:22:41;;;;;;;14.63;13.20;;;;;;;19.92;78.45;100853.22;4969181;28;20514;-65
2023/06/17 11:25:11;;;;;;;15.30;14.00;;;;;;;20.04;78.63;100853.03;4969629;28;20443;-68
2023/06/17 11:27:41;;;;;;;17.40;15.80;;;;;;;19.68;80.94;100840.16;4969111;28;20422;-68
2023/06/17 11:30:14;;;;;;;17.07;14.57;;;;;;;19.55;84.42;100840.59;4970787;28;20413;-67